Time;durP1;ratioP1;P1;durP2;ratioP2;P2;SDS_P1;SDS_P2;PMS_P1;PMS_P2;Temp;Humidity;BMP_temperature;BMP_pressure;BME280_temperature;BME280_humidity;BME280_pressure;Samples;Min_cycle;Max_cycle;Signal;HPM_P1;HPM_P2
2024/04/11 00:01:19;;;;;;;2.15;0.50;;;11.50;92.80;;;16.56;46.71;99586.69;5454563;26;20007;-80
2024/04/11 00:03:46;;;;;;;1.30;0.70;;;11.60;91.80;;;16.60;46.43;99590.75;5424108;26;20459;-81
2024/04/11 00:06:18;;;;;;;4.25;0.63;;;11.60;92.20;;;16.65;46.06;99594.81;5423404;26;20007;-81
2024/04/11 00:08:45;;;;;;;1.05;0.50;;;11.60;91.50;;;16.65;46.45;99584.22;5453884;26;20333;-81
2024/04/11 00:11:18;;;;;;;1.42;0.80;;;12.10;91.60;;;16.64;45.99;99577.25;5422431;26;20003;-79
2024/04/11 00:13:48;;;;;;;1.83;0.52;;;11.60;91.60;;;16.67;46.13;99591.03;5453397;26;20006;-78
2024/04/11 00:16:19;;;;;;;4.28;0.75;;;11.60;91.00;;;16.69;45.92;99585.63;5421394;26;20460;-79
2024/04/11 00:18:46;;;;;;;3.78;2.03;;;11.60;91.30;;;16.70;46.08;99582.84;5453156;26;20075;-80
2024/04/11 00:21:18;;;;;;;5.40;2.08;;;11.60;91.30;;;16.70;46.28;99580.19;5453565;26;20002;-80
2024/04/11 00:23:47;;;;;;;1.73;0.85;;;11.60;90.90;;;16.71;45.77;99576.59;5445216;26;20007;-79
2024/04/11 00:26:17;;;;;;;3.20;1.23;;;12.00;91.30;;;16.74;45.46;99578.97;5417955;26;20080;-82
2024/04/11 00:28:48;;;;;;;3.47;0.90;;;11.60;91.30;;;16.74;45.70;99586.06;5436060;26;20730;-81
2024/04/11 00:31:18;;;;;;;2.80;0.70;;;11.60;91.10;;;16.70;45.50;99584.66;5451252;26;20003;-80
2024/04/11 00:33:54;;;;;;;7.15;1.25;;;11.60;90.90;;;16.69;45.67;99589.13;5454572;26;20018;-81
2024/04/11 00:36:25;;;;;;;3.35;0.68;;;11.60;90.70;;;16.67;45.79;99591.03;5453996;26;20010;-80
2024/04/11 00:38:53;;;;;;;2.85;0.80;;;11.60;90.50;;;16.70;45.88;99592.56;5415609;26;20028;-80
2024/04/11 00:41:26;;;;;;;0.98;0.50;;;11.80;90.00;;;16.69;45.28;99599.69;5452864;26;20003;-80
2024/04/11 00:43:56;;;;;;;6.53;0.73;;;11.70;90.10;;;16.72;45.35;99595.94;5452955;26;20007;-81
2024/04/11 00:46:27;;;;;;;1.13;0.40;;;11.70;89.90;;;16.74;45.50;99597.47;5453119;26;20006;-81
2024/04/11 00:48:54;;;;;;;3.10;0.50;;;11.70;89.90;;;16.77;45.58;99601.66;5424608;26;20076;-78
2024/04/11 00:51:28;;;;;;;0.93;0.60;;;11.70;90.20;;;16.78;45.22;99601.53;5417395;26;20004;-78
2024/04/11 00:53:58;;;;;;;2.15;0.70;;;11.70;90.50;;;16.83;45.83;99607.22;5421209;26;20007;-78
2024/04/11 00:56:28;;;;;;;2.13;0.57;;;11.60;90.70;;;16.84;45.67;99603.63;5453137;26;20007;-79
2024/04/11 00:59:00;;;;;;;1.35;0.70;;;11.60;91.00;;;16.85;45.03;99589.44;5451615;26;20087;-78
2024/04/11 01:01:31;;;;;;;;;;;11.60;91.30;;;16.62;46.55;99593.28;5452588;26;20006;-78
2024/04/11 01:04:00;;;;;;;1.00;0.50;;;11.60;91.60;;;16.84;45.37;99592.22;5452722;26;19925;-79
2024/04/11 01:07:05;;;;;;;2.45;0.73;;;11.50;91.70;;;16.76;46.07;99595.53;5452059;26;20022;-79
2024/04/11 01:09:33;;;;;;;2.67;0.50;;;11.50;91.90;;;16.82;45.38;99591.53;5418733;26;20040;-80
2024/04/11 01:12:05;;;;;;;2.35;0.50;;;11.60;92.00;;;16.78;45.41;99595.41;5422222;26;20007;-79
2024/04/11 01:14:36;;;;;;;8.43;0.68;;;11.60;92.00;;;16.74;45.65;99597.47;5451909;26;20018;-79
2024/04/11 01:17:06;;;;;;;1.88;0.80;;;11.50;92.20;;;16.76;46.51;99595.53;5451732;26;20007;-79
2024/04/11 01:19:34;;;;;;;2.15;0.90;;;11.50;92.70;;;16.74;45.97;99586.06;5431266;26;20002;-79
2024/04/11 01:22:05;;;;;;;3.03;0.65;;;11.50;92.30;;;16.72;45.60;99567.69;5451296;26;20021;-78
2024/04/11 01:24:39;;;;;;;1.95;0.80;;;11.60;91.40;;;16.72;45.86;99582.72;5385948;26;20448;-78
2024/04/11 01:27:12;;;;;;;1.35;0.70;;;11.70;90.30;;;16.75;45.63;99588.59;5415753;26;20022;-79
2024/04/11 01:29:40;;;;;;;1.02;0.30;;;11.70;90.00;;;16.75;45.15;99580.66;5418860;26;20010;-79
2024/04/11 01:32:10;;;;;;;2.33;0.82;;;12.10;90.20;;;16.75;45.84;99577.16;5420295;26;20022;-78
2024/04/11 01:34:39;;;;;;;5.07;0.50;;;11.70;90.50;;;16.73;45.41;99579.94;5415499;26;20011;-79
2024/04/11 01:37:11;;;;;;;3.47;0.60;;;11.70;90.50;;;16.72;45.89;99580.09;5452482;26;20022;-80
2024/04/11 01:39:41;;;;;;;1.98;0.60;;;11.60;90.80;;;16.73;45.60;99579.94;5453611;26;20007;-80
2024/04/11 01:42:12;;;;;;;2.17;0.60;;;11.60;90.80;;;16.76;45.39;99584.13;5453951;26;20025;-79
2024/04/11 01:44:40;;;;;;;2.00;0.63;;;11.60;91.00;;;16.72;45.47;99591.50;5421549;26;20007;-79
2024/04/11 01:47:12;;;;;;;6.90;0.60;;;11.50;91.20;;;16.70;45.73;99590.78;5420756;26;20083;-80
2024/04/11 01:49:41;;;;;;;1.05;0.40;;;11.50;91.70;;;16.72;45.83;99594.13;5452305;26;20007;-79
2024/04/11 01:52:12;;;;;;;0.80;0.45;;;11.50;91.50;;;16.71;45.76;99589.81;5410001;26;20019;-79
2024/04/11 01:54:42;;;;;;;2.20;0.50;;;11.50;91.90;;;16.68;46.04;99592.72;5449592;26;20076;-79
2024/04/11 01:57:13;;;;;;;1.42;0.40;;;11.70;91.80;;;16.66;45.55;99589.41;5450323;26;20129;-77
2024/04/11 01:59:46;;;;;;;1.05;0.50;;;11.50;91.80;;;16.63;45.96;99592.28;5468006;26;20018;-78
2024/04/11 02:02:17;;;;;;;1.35;0.57;;;11.40;91.60;;;16.64;46.01;99598.41;5450187;26;20079;-78
2024/04/11 02:04:45;;;;;;;2.85;0.90;;;11.40;91.40;;;16.62;46.20;99595.06;5450680;26;20006;-78
2024/04/11 02:07:17;;;;;;;1.27;0.68;;;11.30;92.10;;;16.62;45.63;99598.56;5450434;26;20079;-79
2024/04/11 02:09:48;;;;;;;0.95;0.40;;;11.40;92.10;;;16.59;45.63;99610.25;5450089;26;20006;-79
2024/04/11 02:12:19;;;;;;;2.58;0.50;;;11.30;92.30;;;16.58;46.00;99589.22;5451148;26;20007;-76
2024/04/11 02:14:47;;;;;;;2.95;0.40;;;11.30;92.20;;;16.59;45.93;99593.53;5448947;26;20425;-79
2024/04/11 02:17:17;;;;;;;3.72;0.35;;;11.40;92.20;;;16.56;46.14;99591.97;5419556;26;20007;-78
2024/04/11 02:19:45;;;;;;;0.60;0.40;;;11.30;92.30;;;16.56;46.18;99602.53;5448280;26;20122;-79
2024/04/11 02:22:17;;;;;;;1.45;0.40;;;11.30;92.30;;;16.60;46.44;99605.75;5416635;26;20080;-78
2024/04/11 02:24:47;;;;;;;2.97;0.40;;;11.30;93.00;;;16.60;46.16;99600.47;5383936;26;20074;-79
2024/04/11 02:27:18;;;;;;;1.05;0.32;;;11.60;94.00;;;16.57;46.52;99606.03;5414794;26;20003;-79
2024/04/11 02:29:48;;;;;;;3.78;0.43;;;11.30;94.60;;;16.59;46.99;99612.88;5440930;26;20007;-79
2024/04/11 02:32:18;;;;;;;2.70;0.30;;;11.10;95.00;;;16.57;47.32;99604.22;5421850;26;20019;-77
2024/04/11 02:34:46;;;;;;;2.42;0.80;;;11.20;96.10;;;16.61;47.21;99612.72;5454556;26;20023;-77
2024/04/11 02:37:18;;;;;;;2.42;0.57;;;11.70;96.90;;;16.58;48.06;99616.47;5436200;26;20383;-79
2024/04/11 02:39:49;;;;;;;1.33;0.50;;;11.10;97.40;;;16.56;47.51;99613.13;5453976;26;20072;-77
2024/04/11 02:42:19;;;;;;;2.22;0.50;;;11.10;98.00;;;16.54;48.04;99616.84;5423104;26;20018;-78
2024/04/11 02:44:50;;;;;;;1.33;0.52;;;11.10;97.60;;;16.54;48.30;99616.84;5452021;26;20022;-77
2024/04/11 02:47:22;;;;;;;3.55;0.25;;;11.10;98.30;;;16.55;47.92;99613.28;5453230;26;20003;-78
2024/04/11 02:49:50;;;;;;;1.45;0.50;;;11.10;98.70;;;16.55;48.29;99610.63;5422280;26;20006;-78
2024/04/11 02:52:20;;;;;;;1.23;0.47;;;11.10;98.20;;;16.54;47.91;99611.56;5453115;26;20463;-78
2024/04/11 02:54:51;;;;;;;2.60;0.47;;;11.10;97.30;;;16.47;47.08;99613.88;5454303;26;20019;-78
2024/04/11 02:57:21;;;;;;;0.85;0.38;;;11.10;96.20;;;16.43;47.37;99607.19;5451687;26;20056;-78
2024/04/11 02:59:52;;;;;;;1.85;0.60;;;11.20;95.80;;;16.41;46.95;99609.13;5453769;26;20006;-79
2024/04/11 03:02:23;;;;;;;2.22;0.50;;;11.20;95.20;;;16.37;46.95;99609.53;5453365;26;20723;-78
2024/04/11 03:04:51;;;;;;;3.58;0.75;;;11.20;94.70;;;16.36;47.73;99618.44;5452878;26;20509;-77
2024/04/11 03:07:22;;;;;;;0.68;0.32;;;11.30;94.80;;;16.37;46.71;99617.44;5450324;26;20454;-77
2024/04/11 03:09:54;;;;;;;1.48;0.43;;;11.30;94.40;;;16.35;46.92;99616.75;5451147;26;20046;-77
2024/04/11 03:12:24;;;;;;;1.55;0.55;;;11.20;94.30;;;16.38;47.25;99613.84;5451326;26;20014;-77
2024/04/11 03:14:52;;;;;;;3.65;0.60;;;11.20;94.20;;;16.37;47.27;99610.38;5450935;26;20003;-78
2024/04/11 03:17:22;;;;;;;2.28;0.52;;;11.30;94.10;;;16.40;47.17;99622.50;5449333;26;20003;-79
2024/04/11 03:19:50;;;;;;;0.50;0.30;;;11.20;94.00;;;16.42;46.62;99623.19;5451141;26;20007;-78
2024/04/11 03:22:23;;;;;;;3.85;0.70;;;11.20;94.10;;;16.44;46.65;99621.25;5419405;26;20007;-78
2024/04/11 03:24:54;;;;;;;1.52;0.50;;;11.40;94.00;;;16.46;46.98;99616.69;5451048;26;20078;-77
2024/04/11 03:27:26;;;;;;;2.42;0.40;;;11.10;94.00;;;16.47;46.86;99621.81;5450762;26;20075;-79
2024/04/11 03:29:53;;;;;;;;;;;11.10;94.40;;;16.23;47.19;99623.09;5453468;26;20359;-79
2024/04/11 03:32:24;;;;;;;4.85;0.50;;;11.10;94.40;;;16.46;46.64;99624.59;5452175;26;20364;-79
2024/04/11 03:34:53;;;;;;;2.38;0.68;;;11.10;94.60;;;16.47;47.33;99626.25;5452456;26;20807;-77
2024/04/11 03:37:23;;;;;;;1.63;0.80;;;11.10;95.00;;;16.48;46.98;99627.94;5449556;26;19999;-75
2024/04/11 03:39:54;;;;;;;6.68;2.47;;;11.00;95.50;;;16.47;47.39;99615.69;5448562;26;20003;-78
2024/04/11 03:42:24;;;;;;;6.43;0.95;;;11.00;96.70;;;16.48;47.90;99622.66;5450235;26;20007;-77
2024/04/11 03:44:52;;;;;;;3.80;0.73;;;11.00;96.90;;;16.47;47.13;99615.69;5449438;26;20472;-77
2024/04/11 03:47:23;;;;;;;2.13;1.05;;;10.90;96.70;;;16.45;47.57;99615.00;5449695;26;20003;-77
2024/04/11 03:49:55;;;;;;;2.58;0.73;;;11.50;97.80;;;16.39;48.05;99612.88;5450782;26;20023;-78
2024/04/11 03:52:27;;;;;;;3.08;0.80;;;10.90;97.60;;;16.36;47.35;99615.78;5437894;26;20015;-77
2024/04/11 03:55:03;;;;;;;2.83;0.55;;;11.00;97.70;;;16.32;47.93;99619.66;5413951;26;20007;-78
2024/04/11 03:57:31;;;;;;;2.58;0.80;;;10.90;98.10;;;16.29;47.68;99618.13;5414791;26;20007;-79
2024/04/11 04:00:07;;;;;;;3.80;0.50;;;10.80;97.80;;;16.26;47.62;99620.19;5432367;26;20007;-77
2024/04/11 04:02:39;;;;;;;7.80;0.70;;;10.80;97.40;;;16.22;48.09;99616.97;5416114;26;20417;-78
2024/04/11 04:05:13;;;;;;;0.75;0.40;;;11.20;98.20;;;16.19;48.18;99616.41;5418195;26;20003;-77
2024/04/11 04:07:41;;;;;;;3.35;0.50;;;10.80;97.80;;;16.16;48.04;99621.94;5450987;26;20007;-77
2024/04/11 04:10:14;;;;;;;0.90;0.43;;;10.70;97.20;;;16.13;47.38;99628.31;5449635;26;20021;-78
2024/04/11 04:12:42;;;;;;;1.70;0.70;;;10.70;97.20;;;16.12;47.30;99631.06;5414861;26;20008;-76
2024/04/11 04:15:12;;;;;;;1.10;0.40;;;10.70;97.70;;;16.10;47.64;99629.41;5442586;26;20007;-77
2024/04/11 04:17:40;;;;;;;3.13;0.70;;;10.60;97.20;;;16.10;47.77;99629.41;5448045;26;20003;-79
2024/04/11 04:20:12;;;;;;;2.40;0.60;;;11.00;97.50;;;16.09;47.30;99629.53;5449334;26;20084;-78
2024/04/11 04:22:39;;;;;;;3.42;0.82;;;10.60;97.30;;;16.05;47.41;99630.75;5417622;26;20003;-76
2024/04/11 04:25:11;;;;;;;1.80;0.68;;;10.60;97.90;;;15.98;48.16;99630.44;5449047;26;19998;-77
2024/04/11 04:27:44;;;;;;;5.78;0.90;;;10.50;98.00;;;15.95;48.02;99641.25;5417091;26;20007;-76
2024/04/11 04:30:15;;;;;;;2.28;0.57;;;10.60;98.00;;;15.92;48.11;99640.69;5414430;26;19999;-76
2024/04/11 04:32:48;;;;;;;4.25;0.98;;;10.50;98.00;;;15.90;47.82;99638.19;5448279;26;20010;-76
2024/04/11 04:35:27;;;;;;;2.42;0.95;;;10.50;98.00;;;15.87;47.97;99642.88;5444386;26;20505;-75
2024/04/11 04:38:00;;;;;;;2.45;0.70;;;10.50;98.00;;;15.82;47.76;99650.31;5441745;26;20491;-77
2024/04/11 04:40:35;;;;;;;3.35;0.70;;;10.50;98.00;;;15.79;48.17;99654.06;5448773;26;20019;-78
2024/04/11 04:43:06;;;;;;;4.22;0.85;;;10.50;98.40;;;15.72;48.78;99660.81;5449903;26;20014;-78
2024/04/11 04:45:36;;;;;;;3.05;0.75;;;10.40;99.30;;;15.73;49.04;99667.78;5449363;26;20003;-78
2024/04/11 04:48:05;;;;;;;10.15;3.78;;;10.30;99.60;;;15.73;48.16;99651.09;5420036;26;20007;-78
2024/04/11 04:50:35;;;;;;;4.70;1.45;;;10.30;99.80;;;15.73;48.60;99653.75;5446420;26;20014;-78
2024/04/11 04:53:05;;;;;;;5.30;1.52;;;10.30;99.90;;;15.70;48.91;99654.84;5446414;26;20006;-77
2024/04/11 04:55:36;;;;;;;5.53;1.30;;;10.30;99.90;;;15.67;48.98;99663.00;5448240;26;20018;-77
2024/04/11 04:58:06;;;;;;;14.82;4.97;;;10.30;99.90;;;15.62;49.38;99669.59;5435935;26;20025;-77
2024/04/11 05:00:42;;;;;;;8.57;2.65;;;10.20;99.90;;;15.52;50.21;99674.78;5448883;26;20031;-78
2024/04/11 05:03:12;;;;;;;5.70;2.65;;;10.20;99.90;;;15.44;50.73;99672.75;5448464;26;20018;-79
2024/04/11 05:05:48;;;;;;;5.82;2.58;;;10.10;99.90;;;15.45;50.44;99665.66;5447680;26;20007;-78
2024/04/11 05:08:16;;;;;;;7.70;2.42;;;10.10;99.90;;;15.45;50.61;99666.50;5446880;26;20007;-77
2024/04/11 05:11:10;;;;;;;7.57;2.60;;;10.10;99.90;;;15.45;50.50;99670.94;5446860;26;19998;-78
2024/04/11 05:13:43;;;;;;;6.28;2.33;;;10.20;99.90;;;15.44;51.16;99677.19;5445347;26;20021;-78
2024/04/11 05:16:18;;;;;;;8.63;2.38;;;10.20;99.90;;;15.46;51.01;99697.22;5448418;26;20461;-78
2024/04/11 05:18:51;;;;;;;8.10;2.60;;;10.20;99.90;;;15.50;50.99;99692.56;5442879;26;20072;-78
2024/04/11 05:21:24;;;;;;;8.80;2.70;;;10.60;99.90;;;15.50;51.25;99692.56;5442323;26;20006;-78
2024/04/11 05:23:56;;;;;;;9.65;2.83;;;10.30;99.90;;;15.58;51.35;99704.16;5448093;26;20075;-75
2024/04/11 05:29:20;;;;;;;28.95;14.75;;;10.40;99.90;;;15.67;51.56;99697.31;5442947;26;20329;-77
2024/04/11 05:31:48;;;;;;;14.82;5.28;;;10.40;99.90;;;15.72;51.42;99705.69;5438075;26;20010;-77
2024/04/11 05:34:26;;;;;;;9.10;2.72;;;10.50;99.90;;;15.78;51.70;99697.25;5446191;26;19999;-77
2024/04/11 05:36:58;;;;;;;11.15;3.08;;;10.50;99.90;;;15.81;51.26;99702.28;5447869;26;20402;-77
2024/04/11 05:39:33;;;;;;;12.50;3.60;;;10.50;99.90;;;15.88;51.52;99714.00;5448411;26;20014;-77
2024/04/11 05:42:06;;;;;;;12.77;3.90;;;10.60;99.90;;;15.92;52.07;99710.16;5446189;26;20082;-77
2024/04/11 05:44:39;;;;;;;15.15;3.78;;;10.70;99.90;;;15.97;51.24;99693.97;5447686;26;20049;-76
2024/04/11 05:47:08;;;;;;;11.07;4.03;;;10.70;99.90;;;15.98;51.43;99699.09;5445206;26;20010;-78
2024/04/11 05:49:39;;;;;;;12.25;3.58;;;10.80;99.90;;;16.05;51.33;99705.53;5399876;26;20000;-76
2024/04/11 05:52:11;;;;;;;16.38;4.68;;;10.80;99.90;;;16.09;51.09;99711.41;5438217;26;20067;-77
2024/04/11 05:54:51;;;;;;;15.13;6.45;;;10.80;99.90;;;16.11;51.51;99709.47;5442949;26;20003;-76
2024/04/11 05:57:18;;;;;;;17.02;6.50;;;10.80;99.90;;;16.17;51.78;99705.50;5446494;26;20003;-76
2024/04/11 05:59:51;;;;;;;16.42;5.78;;;11.00;99.90;;;16.22;51.48;99706.78;5448001;26;20007;-76
2024/04/11 06:02:20;;;;;;;10.45;4.45;;;11.20;99.90;;;16.25;50.87;99710.97;5447493;26;20134;-75
2024/04/11 06:04:52;;;;;;;11.75;4.38;;;11.30;99.90;;;16.32;51.21;99717.41;5448315;26;19999;-75
2024/04/11 06:07:29;;;;;;;11.57;3.90;;;11.40;99.90;;;16.45;51.38;99723.34;5440423;26;20438;-77
2024/04/11 06:10:04;;;;;;;15.10;6.32;;;11.70;99.90;;;16.62;50.95;99736.00;5451045;26;20030;-77
2024/04/11 06:12:32;;;;;;;14.30;5.47;;;12.00;99.90;;;16.77;50.48;99734.69;5452063;26;20007;-77
2024/04/11 06:15:11;;;;;;;5.28;2.72;;;12.30;99.90;;;16.89;49.99;99732.81;5427785;26;20492;-77
2024/04/11 06:17:41;;;;;;;9.25;2.13;;;12.30;98.90;;;16.97;49.28;99739.09;5422281;26;20022;-76
2024/04/11 06:20:15;;;;;;;6.68;1.60;;;12.30;97.80;;;17.05;49.00;99744.59;5451968;26;20006;-76
2024/04/11 06:22:46;;;;;;;9.05;2.00;;;12.40;98.00;;;17.19;49.35;99747.84;5449746;26;20017;-76
2024/04/11 06:25:17;;;;;;;7.55;2.15;;;12.70;98.20;;;17.35;49.00;99749.00;5450465;26;20383;-77
2024/04/11 06:27:44;;;;;;;14.95;2.10;;;12.90;96.90;;;17.50;48.74;99744.16;5419847;26;20018;-78
2024/04/11 06:30:25;;;;;;;6.95;1.80;;;13.00;94.90;;;17.57;48.46;99745.31;5448681;26;20006;-78
2024/04/11 06:32:54;;;;;;;4.65;1.30;;;13.00;93.60;;;17.60;48.03;99748.53;5449079;26;20075;-77
2024/04/11 06:35:29;;;;;;;6.00;1.13;;;13.10;92.70;;;17.68;48.07;99750.53;5448611;26;20080;-77
2024/04/11 06:37:59;;;;;;;3.83;1.20;;;13.20;92.90;;;17.74;47.36;99752.63;5451156;26;20007;-78
2024/04/11 06:40:30;;;;;;;2.70;1.13;;;13.40;92.20;;;17.81;47.63;99743.16;5424888;26;20016;-78
2024/04/11 06:42:59;;;;;;;8.13;1.38;;;13.40;91.20;;;17.88;46.86;99757.50;5448865;26;20009;-78
2024/04/11 06:45:32;;;;;;;7.43;1.27;;;13.60;90.00;;;17.97;46.60;99756.69;5380790;26;20019;-78
2024/04/11 06:48:00;;;;;;;4.05;1.17;;;13.70;89.20;;;18.04;46.42;99764.91;5377692;26;20008;-78
2024/04/11 06:50:30;;;;;;;2.92;1.08;;;13.90;89.80;;;18.19;46.44;99765.31;5379403;26;20009;-78
2024/04/11 06:52:59;;;;;;;3.22;0.98;;;14.10;89.10;;;18.37;46.13;99774.25;5377222;26;20004;-79
2024/04/11 06:55:30;;;;;;;4.90;1.52;;;14.10;88.20;;;18.55;45.64;99767.28;5378547;26;20028;-77
2024/04/11 06:57:58;;;;;;;4.50;1.10;;;14.50;87.10;;;18.67;45.84;99767.97;5379554;26;20004;-78
2024/04/11 07:00:36;;;;;;;4.38;1.10;;;14.60;86.60;;;18.79;45.72;99778.28;5380988;26;20009;-78
2024/04/11 07:03:16;;;;;;;4.35;1.42;;;14.60;86.00;;;18.91;45.15;99787.72;5382792;26;20059;-78
2024/04/11 07:05:55;;;;;;;5.75;1.38;;;14.80;85.60;;;19.01;44.87;99779.75;5381358;26;20513;-78
2024/04/11 07:08:29;;;;;;;3.90;1.52;;;14.90;84.80;;;19.14;44.83;99777.59;5409537;26;20004;-78
2024/04/11 07:11:12;;;;;;;5.05;1.77;;;15.00;84.00;;;19.21;44.48;99781.34;5381408;26;20008;-78
2024/04/11 07:13:43;;;;;;;5.53;1.88;;;15.20;84.60;;;19.33;44.30;99782.81;5380723;26;20469;-78
2024/04/11 07:16:16;;;;;;;3.40;1.27;;;15.40;84.20;;;19.57;44.49;99798.25;5380945;26;20008;-78
2024/04/11 07:18:54;;;;;;;2.58;1.42;;;15.80;83.60;;;19.72;44.14;99788.84;5381160;26;20081;-78
2024/04/11 07:21:30;;;;;;;4.97;1.50;;;15.80;82.20;;;19.88;43.96;99783.69;5379039;26;20008;-78
2024/04/11 07:24:06;;;;;;;7.20;1.70;;;15.90;81.80;;;20.00;43.77;99779.81;5371558;26;20056;-78
2024/04/11 07:26:36;;;;;;;4.78;1.83;;;16.10;81.60;;;20.17;43.34;99784.31;5379769;26;20008;-78
2024/04/11 07:29:15;;;;;;;7.00;1.65;;;16.20;80.40;;;20.26;43.28;99779.91;5379384;26;20008;-78
2024/04/11 07:31:52;;;;;;;7.68;1.80;;;16.30;81.30;;;20.38;42.95;99780.53;5378085;26;20019;-77
2024/04/11 07:34:23;;;;;;;5.65;2.05;;;16.30;80.60;;;20.49;42.84;99785.59;5379671;26;20027;-76
2024/04/11 07:36:57;;;;;;;4.30;1.70;;;16.30;80.40;;;20.61;42.74;99787.06;5362617;26;20199;-77
2024/04/11 07:39:32;;;;;;;7.35;1.70;;;16.70;80.90;;;20.79;42.46;99793.16;5377566;26;20020;-77
2024/04/11 07:42:18;;;;;;;8.60;1.75;;;16.60;79.20;;;20.90;41.88;99795.56;5375947;26;20008;-77
2024/04/11 07:44:49;;;;;;;3.38;1.60;;;16.70;79.50;;;21.07;42.05;99794.69;5419575;26;20010;-78
2024/04/11 07:47:21;;;;;;;6.35;1.50;;;17.00;79.20;;;21.21;41.37;99804.78;5448845;26;20007;-78
2024/04/11 07:49:52;;;;;;;;;;;17.10;76.30;;;21.14;42.56;99806.38;5449701;26;20858;-78
2024/04/11 07:52:19;;;;;;;2.67;1.20;;;17.20;76.50;;;21.43;41.01;99807.88;5448947;26;19932;-78
2024/04/11 07:54:53;;;;;;;5.93;1.63;;;17.50;75.80;;;21.54;40.82;99807.59;5449212;26;20096;-78
2024/04/11 07:57:21;;;;;;;6.28;1.42;;;17.50;76.40;;;21.68;40.76;99818.50;5449716;26;20018;-77
2024/04/11 07:59:55;;;;;;;5.15;1.20;;;17.60;76.20;;;21.75;40.64;99816.00;5443623;26;20355;-78
2024/04/11 08:02:26;;;;;;;4.28;0.88;;;17.70;74.30;;;21.92;39.89;99817.78;5448761;26;20003;-78
2024/04/11 08:04:58;;;;;;;2.83;1.35;;;17.90;74.10;;;22.11;40.64;99816.63;5426161;26;20006;-79
2024/04/11 08:07:26;;;;;;;8.05;1.20;;;18.10;74.40;;;22.28;40.31;99821.00;5437716;26;20456;-78
2024/04/11 08:09:58;;;;;;;3.28;1.35;;;18.30;73.60;;;22.40;39.05;99816.16;5437224;26;20003;-78
2024/04/11 08:12:27;;;;;;;8.38;0.90;;;18.30;71.70;;;22.47;39.02;99827.84;5417753;26;20486;-77
2024/04/11 08:14:57;;;;;;;7.20;0.95;;;18.30;72.10;;;22.49;39.46;99828.53;5449886;26;20469;-77
2024/04/11 08:17:29;;;;;;;7.70;1.00;;;18.30;72.40;;;22.60;39.19;99834.38;5450781;26;20079;-77
2024/04/11 08:19:59;;;;;;;3.60;0.90;;;18.40;73.20;;;22.71;38.86;99835.91;5451452;26;20006;-77
2024/04/11 08:22:32;;;;;;;3.03;0.75;;;18.50;72.40;;;22.83;37.94;99831.06;5449718;26;20013;-77
2024/04/11 08:25:09;;;;;;;3.47;0.82;;;18.60;70.10;;;22.81;38.30;99841.91;5450731;26;20017;-79
2024/04/11 08:27:42;;;;;;;7.13;1.00;;;18.60;71.00;;;22.95;37.45;99833.25;5452338;26;20013;-76
2024/04/11 08:30:18;;;;;;;3.67;0.77;;;18.90;71.00;;;23.13;37.97;99835.69;5453551;26;20007;-76
2024/04/11 08:32:49;;;;;;;6.55;1.05;;;19.10;71.30;;;23.24;37.17;99832.69;5437033;26;20457;-79
2024/04/11 08:35:24;;;;;;;2.65;0.68;;;19.00;69.20;;;23.20;37.25;99837.53;5421381;26;20523;-77
2024/04/11 08:37:52;;;;;;;2.88;0.95;;;18.90;69.60;;;23.23;36.73;99844.38;5452579;26;20014;-77
2024/04/11 08:40:30;;;;;;;6.10;1.25;;;19.00;68.30;;;23.29;37.80;99841.00;5451189;26;20359;-77
2024/04/11 08:42:57;;;;;;;9.25;1.70;;;19.20;70.80;;;23.39;37.67;99843.47;5442390;26;20003;-78
2024/04/11 08:45:54;;;;;;;2.38;0.95;;;19.20;69.50;;;23.50;38.05;99846.66;5415510;26;20019;-77
2024/04/11 08:48:30;;;;;;;3.45;1.45;;;19.40;69.50;;;23.56;37.19;99842.47;5414626;26;20040;-77
2024/04/11 08:51:05;;;;;;;5.00;1.10;;;19.40;69.00;;;23.60;37.07;99851.81;5414913;26;20096;-76
2024/04/11 08:53:39;;;;;;;8.32;1.35;;;19.50;69.30;;;23.72;36.79;99848.59;5414228;26;20007;-76
2024/04/11 08:56:17;;;;;;;4.95;1.10;;;19.50;68.30;;;23.83;37.44;99858.06;5433208;26;20013;-77
2024/04/11 08:58:50;;;;;;;7.45;1.40;;;19.70;69.10;;;24.02;37.40;99860.31;5453253;26;20021;-77
2024/04/11 09:01:28;;;;;;;3.58;1.20;;;20.00;69.60;;;24.21;37.08;99859.91;5447713;26;20003;-77
2024/04/11 09:04:04;;;;;;;12.85;1.50;;;20.20;68.80;;;24.35;36.96;99858.31;5443990;26;20006;-77
2024/04/11 09:06:42;;;;;;;3.55;1.25;;;20.20;67.80;;;24.44;37.07;99853.72;5447786;26;20019;-77
2024/04/11 09:09:16;;;;;;;6.00;1.13;;;20.20;68.10;;;24.50;37.21;99856.53;5446629;26;20005;-77
2024/04/11 09:11:54;;;;;;;9.60;1.17;;;20.20;68.50;;;24.56;37.37;99855.84;5443333;26;20352;-78
2024/04/11 09:14:26;;;;;;;7.53;1.33;;;20.30;68.70;;;24.62;36.70;99855.13;5447192;26;20344;-76
2024/04/11 09:17:04;;;;;;;4.80;1.05;;;20.40;68.10;;;24.65;36.57;99859.28;5450026;26;20010;-76
2024/04/11 09:19:39;;;;;;;5.30;1.42;;;20.50;67.40;;;24.75;36.67;99862.56;5450202;26;20014;-76
2024/04/11 09:22:12;;;;;;;5.65;1.20;;;20.60;67.60;;;24.75;36.90;99857.19;5450969;26;20079;-76
2024/04/11 09:24:44;;;;;;;4.28;1.50;;;20.50;68.40;;;24.70;37.03;99848.84;5450313;26;20433;-77
2024/04/11 09:27:16;;;;;;;8.88;1.40;;;20.40;67.70;;;24.76;36.52;99858.88;5450037;26;20010;-76
2024/04/11 09:29:44;;;;;;;7.47;1.17;;;20.60;67.30;;;24.81;35.97;99859.16;5450921;26;20159;-76
2024/04/11 09:32:24;;;;;;;5.13;1.40;;;20.60;66.20;;;24.83;36.26;99870.53;5449241;26;20013;-75
2024/04/11 09:35:01;;;;;;;4.15;1.50;;;20.70;66.30;;;24.90;36.03;99876.00;5451791;26;20057;-75
2024/04/11 09:37:35;;;;;;;3.92;1.40;;;20.70;67.10;;;24.99;36.65;99873.09;5447211;26;20007;-77
2024/04/11 09:40:11;;;;;;;8.18;2.13;;;20.80;67.00;;;25.09;36.26;99872.84;5445675;26;19999;-76
2024/04/11 09:42:43;;;;;;;4.65;1.60;;;20.90;67.30;;;25.12;36.00;99876.00;5414777;26;20870;-76
2024/04/11 09:45:17;;;;;;;;;;;20.90;66.10;;;25.02;36.59;99871.91;5448452;26;20344;-78
2024/04/11 09:47:53;;;;;;;6.03;1.63;;;20.90;65.30;;;25.19;35.89;99870.75;5414261;26;19932;-77
2024/04/11 09:50:27;;;;;;;8.25;1.85;;;21.00;65.50;;;25.31;36.04;99882.66;5446031;26;20025;-78
2024/04/11 09:53:10;;;;;;;3.88;1.73;;;21.20;65.70;;;25.39;35.51;99874.53;5443341;26;20463;-78
2024/04/11 09:55:40;;;;;;;6.75;1.70;;;21.30;65.10;;;25.46;35.41;99882.66;5425683;26;20417;-78
2024/04/11 09:58:13;;;;;;;5.80;1.77;;;21.40;64.50;;;25.52;35.42;99880.13;5446951;26;20565;-79
2024/04/11 10:00:48;;;;;;;6.38;1.80;;;21.40;64.80;;;25.57;35.47;99880.41;5444652;26;20393;-78
2024/04/11 10:03:22;;;;;;;18.40;2.38;;;21.30;65.00;;;25.58;35.74;99892.81;5446227;26;20076;-77
2024/04/11 10:05:52;;;;;;;5.93;2.33;;;21.40;65.20;;;25.57;34.69;99892.97;5444414;26;20357;-76
2024/04/11 10:08:27;;;;;;;7.15;2.13;;;21.20;63.30;;;25.44;34.88;99892.75;5445077;26;20018;-77
2024/04/11 10:10:58;;;;;;;10.60;2.00;;;21.30;64.60;;;25.42;35.52;99889.44;5422466;26;20003;-77
2024/04/11 10:13:29;;;;;;;12.80;2.28;;;21.30;64.60;;;25.50;35.18;99892.88;5450557;26;20010;-77
2024/04/11 10:16:05;;;;;;;7.22;1.92;;;21.60;64.20;;;25.72;35.25;99891.13;5452371;26;19998;-76
2024/04/11 10:18:45;;;;;;;12.35;2.40;;;21.70;64.00;;;25.86;35.27;99890.28;5447208;26;19999;-77
2024/04/11 10:21:26;;;;;;;8.13;1.70;;;21.90;63.80;;;25.98;34.86;99891.50;5447433;26;20013;-77
2024/04/11 10:23:56;;;;;;;9.00;2.05;;;21.90;62.60;;;26.03;33.93;99897.13;5446735;26;20044;-75
2024/04/11 10:26:32;;;;;;;9.35;2.03;;;21.70;61.30;;;25.99;33.93;99885.09;5440813;26;20625;-77
2024/04/11 10:29:18;;;;;;;5.15;1.90;;;21.80;61.30;;;25.95;34.02;99889.16;5446360;26;20003;-76
2024/04/11 10:31:47;;;;;;;8.45;1.95;;;21.80;61.30;;;25.96;34.51;99896.22;5444455;26;20312;-77
2024/04/11 10:34:19;;;;;;;5.63;1.73;;;21.90;62.50;;;26.01;34.83;99893.81;5416097;26;19999;-77
2024/04/11 10:37:02;;;;;;;7.88;2.35;;;22.00;62.40;;;26.12;34.55;99887.94;5445159;26;20876;-75
2024/04/11 10:39:35;;;;;;;7.75;2.13;;;22.20;61.90;;;26.28;34.41;99887.75;5386920;26;20003;-77
2024/04/11 10:42:07;;;;;;;7.85;1.92;;;22.30;61.40;;;26.35;34.10;99895.88;5443038;26;20511;-76
2024/04/11 10:44:38;;;;;;;10.23;1.90;;;22.30;61.20;;;26.43;34.33;99892.25;5429034;26;20018;-78